Aérodrome :
LOGIN :

S'inscrire | Disclaimer

   EN    FR    IT 

 










Légende :    VFR   VFR Marginal   IFR   IFR Intensif   IFR Très Intensif
Visi : 
Plafond : 
>= 8 km
>= 3000ft
5 à 8 km
1000 à 3000 ft
1500m à 5 km
500 à 1000 ft
800 à 1500m
200 à 500 ft
< 800m
< 200 ft
Symboles :   Orages  Brouillard  Fortes neiges  Fortes précipitations  Vent > 20 kt
SIGMETs :   Divers  Orages  Givrage  Turbulence  Onde Orograph.  Cendres Volcan.






- Altitude de l'aérodrome : 74 ft
- Code IATA : EIN


EHEH - Eindhoven

DERNIER METAR :
  • 281725Z AUTO 36017KT 320V040 9999 NCD 10/02 Q1024 BLU

METARs EXPIRÉS :
  • 281655Z AUTO 36016KT 320V040 9999 NCD 11/02 Q1023 BLU
  • 281625Z AUTO 01017KT 330V050 9999 NCD 11/03 Q1023 BLU
  • 281555Z AUTO 01017KT 330V040 9999 NCD 12/03 Q1023 BLU
  • 281525Z AUTO 36016KT 330V030 9999 NCD 13/M00 Q1023 BLU
  • 281455Z AUTO 35014KT 290V040 9999 NCD 14/00 Q1023 BLU 03014G26KT CAVOK

TAF TAF EHEH
Valide du 28 à 12h jusqu'au 29 à 18h UTC


281146Z 2812/2918 03014G27KT CAVOK
BECMG 2819/2821 36012KT SCT022
BECMG 2823/2901 34008KT
BECMG 2908/2910 02018G36KT
PROB30
TEMPO 2909/2912 4000 -SHRASN SCT015 SCT030CB



MET'MAP, la Météo Aéronautique d'un coup d'oeil ! - Copyright ORBIFLY Décembre 2007 - Disclaimer

ORBIFLY MET'MAP TEAM :

Programmation & Développement : Alexandra Zaïnal
Sur une idée originale de : Baudouin d'Aumeries
Assistance à la programmation : Marc-Olivier Méhu
Soutien technique & logistique : Manuel Goepfert

Contact : metmap@orbifly.com




SOURCES & CREDITS :

   NOAA